createdAt,value
2019-03-09T00:02:18.420Z,1.03
2019-03-09T00:04:48.444Z,1.07
2019-03-09T00:07:20.550Z,1.40
2019-03-09T00:09:48.997Z,1.10
2019-03-09T00:12:17.373Z,1.27
2019-03-09T00:14:45.753Z,1.40
2019-03-09T00:17:16.903Z,1.40
2019-03-09T00:19:47.951Z,1.50
2019-03-09T00:22:16.427Z,1.33
2019-03-09T00:24:51.837Z,1.00
2019-03-09T00:27:29.878Z,1.30
2019-03-09T00:30:08.143Z,1.20
2019-03-09T00:32:39.450Z,1.60
2019-03-09T00:35:09.477Z,1.57
2019-03-09T00:37:46.725Z,1.17
2019-03-09T00:40:15.426Z,1.70
2019-03-09T00:42:43.810Z,1.50
2019-03-09T00:45:15.618Z,1.63
2019-03-09T00:47:44.017Z,1.47
2019-03-09T00:50:14.033Z,1.40
2019-03-09T00:52:45.186Z,1.13
2019-03-09T00:55:16.014Z,1.40
2019-03-09T00:57:44.401Z,1.20
2019-03-09T01:00:18.495Z,1.30
2019-03-09T01:02:46.953Z,1.30
2019-03-09T01:05:16.549Z,1.23
2019-03-09T01:07:48.285Z,1.30
2019-03-09T01:10:20.029Z,1.40
2019-03-09T01:12:55.029Z,1.20
2019-03-09T01:15:23.411Z,1.23
2019-03-09T01:17:51.789Z,1.00
2019-03-09T01:20:24.661Z,1.20
2019-03-09T01:22:55.734Z,1.37
2019-03-09T01:25:24.117Z,1.30
2019-03-09T01:27:52.501Z,1.10
2019-03-09T01:30:24.807Z,1.47
2019-03-09T01:32:53.180Z,1.80
2019-03-09T01:35:22.179Z,1.10
2019-03-09T01:37:52.207Z,1.23
2019-03-09T01:40:22.245Z,1.67
2019-03-09T01:42:53.308Z,1.47
2019-03-09T01:45:23.329Z,1.43
2019-03-09T01:47:55.852Z,1.27
2019-03-09T01:50:24.246Z,1.07
2019-03-09T01:52:55.858Z,1.20
2019-03-09T01:55:29.073Z,1.57
2019-03-09T01:57:57.450Z,1.50
2019-03-09T02:00:27.547Z,1.00
2019-03-09T02:02:55.938Z,1.40
2019-03-09T02:05:29.738Z,1.10
2019-03-09T02:08:04.437Z,1.27
2019-03-09T02:10:32.832Z,1.40
2019-03-09T02:13:13.202Z,1.47
2019-03-09T02:15:43.057Z,1.20
2019-03-09T02:18:11.449Z,1.20
2019-03-09T02:20:42.796Z,1.30
2019-03-09T02:23:15.501Z,1.90
2019-03-09T02:25:45.534Z,1.63
2019-03-09T02:28:13.917Z,1.50
2019-03-09T02:30:44.180Z,1.67
2019-03-09T02:33:14.213Z,1.47
2019-03-09T02:35:42.833Z,1.77
2019-03-09T02:38:12.865Z,1.20
2019-03-09T02:40:41.318Z,1.30
2019-03-09T02:43:15.980Z,1.23
2019-03-09T02:45:45.973Z,1.23
2019-03-09T02:48:14.361Z,1.47
2019-03-09T02:50:57.677Z,1.40
2019-03-09T02:53:27.234Z,1.40
2019-03-09T02:55:56.273Z,1.40
2019-03-09T02:58:27.332Z,1.10
2019-03-09T03:01:03.093Z,1.50
2019-03-09T03:03:32.758Z,1.60
2019-03-09T03:06:01.182Z,1.47
2019-03-09T03:08:32.546Z,1.60
2019-03-09T03:11:01.110Z,1.63
2019-03-09T03:13:30.427Z,1.80
2019-03-09T03:15:58.814Z,1.47
2019-03-09T03:18:27.207Z,1.33
2019-03-09T03:21:01.440Z,1.30
2019-03-09T03:23:35.794Z,1.43
2019-03-09T03:26:06.948Z,1.43
2019-03-09T03:28:38.577Z,1.53
2019-03-09T03:31:10.019Z,2.03
2019-03-09T03:33:39.161Z,1.70
2019-03-09T03:36:10.413Z,1.30
2019-03-09T03:38:44.817Z,1.40
2019-03-09T03:41:13.209Z,1.40
2019-03-09T03:43:41.598Z,1.77
2019-03-09T03:46:09.987Z,1.30
2019-03-09T03:48:40.050Z,1.20
2019-03-09T03:51:08.438Z,1.67
2019-03-09T03:53:36.820Z,1.50
2019-03-09T03:56:05.497Z,1.20
2019-03-09T03:58:45.917Z,1.60
2019-03-09T04:01:14.552Z,1.60
2019-03-09T04:03:45.578Z,1.50
2019-03-09T04:06:16.465Z,1.63
2019-03-09T04:08:46.561Z,1.10
2019-03-09T04:11:16.875Z,1.27
2019-03-09T04:13:48.862Z,1.07
2019-03-09T04:16:17.254Z,1.43
2019-03-09T04:18:45.657Z,1.70
2019-03-09T04:21:15.128Z,1.13
2019-03-09T04:23:43.507Z,0.90
2019-03-09T04:26:14.823Z,1.33
2019-03-09T04:28:44.920Z,1.10
2019-03-09T04:31:19.230Z,1.20
2019-03-09T04:33:47.618Z,1.00
2019-03-09T04:36:15.997Z,0.97
2019-03-09T04:38:44.385Z,1.10
2019-03-09T04:41:12.817Z,1.47
2019-03-09T04:43:41.193Z,0.90
2019-03-09T04:46:09.578Z,0.83
2019-03-09T04:48:40.933Z,0.70
2019-03-09T04:51:09.333Z,1.00
2019-03-09T04:53:37.954Z,1.13
2019-03-09T04:56:09.737Z,0.70
2019-03-09T04:58:38.113Z,0.93
2019-03-09T05:01:07.865Z,0.70
2019-03-09T05:03:38.652Z,0.87
2019-03-09T05:06:13.166Z,0.83
2019-03-09T05:09:11.500Z,0.93
2019-03-09T05:11:39.889Z,0.90
2019-03-09T05:14:11.577Z,0.70
2019-03-09T05:16:40.027Z,0.47
2019-03-09T05:19:10.044Z,0.80
2019-03-09T05:21:40.077Z,0.70
2019-03-09T05:24:08.497Z,0.80
2019-03-09T05:26:36.887Z,0.77
2019-03-09T05:29:08.207Z,0.70
2019-03-09T05:31:36.593Z,0.60
2019-03-09T05:34:06.693Z,0.60
2019-03-09T05:36:56.057Z,0.70
2019-03-09T05:39:24.689Z,0.83
2019-03-09T05:41:53.068Z,0.73
2019-03-09T05:44:21.453Z,0.60
2019-03-09T05:46:51.473Z,0.40
2019-03-09T05:49:19.881Z,0.80
2019-03-09T05:52:23.365Z,0.83
2019-03-09T05:54:51.756Z,0.53
2019-03-09T05:57:21.792Z,0.67
2019-03-09T05:59:50.173Z,0.40
2019-03-09T06:02:18.569Z,0.57
2019-03-09T06:04:49.870Z,0.60
2019-03-09T06:07:19.225Z,0.70
2019-03-09T06:09:47.742Z,0.50
2019-03-09T06:12:16.129Z,0.53
2019-03-09T06:14:44.535Z,0.60
2019-03-09T06:17:12.917Z,0.60
2019-03-09T06:19:45.321Z,0.60
2019-03-09T06:22:18.081Z,0.63
2019-03-09T06:24:49.726Z,0.60
2019-03-09T06:27:18.118Z,0.60
2019-03-09T06:29:46.498Z,0.70
2019-03-09T06:32:36.173Z,0.80
2019-03-09T06:35:13.473Z,0.70
2019-03-09T06:37:47.705Z,0.83
2019-03-09T06:40:18.537Z,0.83
2019-03-09T06:42:49.449Z,0.80
2019-03-09T06:45:17.853Z,0.97
2019-03-09T06:47:46.234Z,0.90
2019-03-09T06:50:16.352Z,0.80
2019-03-09T06:52:47.669Z,0.70
2019-03-09T06:55:17.029Z,0.90
2019-03-09T06:57:48.370Z,0.80
2019-03-09T07:00:36.334Z,1.00
2019-03-09T07:03:06.240Z,0.80
2019-03-09T07:05:36.293Z,1.00
2019-03-09T07:08:04.739Z,0.80
2019-03-09T07:10:33.117Z,0.80
2019-03-09T07:13:01.518Z,1.00
2019-03-09T07:15:32.982Z,1.00
2019-03-09T07:18:06.637Z,1.03
2019-03-09T07:20:36.661Z,0.90
2019-03-09T07:23:10.921Z,1.00
2019-03-09T07:25:46.231Z,1.00
2019-03-09T07:28:15.569Z,0.93
2019-03-09T07:30:44.604Z,0.90
2019-03-09T07:33:21.464Z,0.90
2019-03-09T07:35:49.838Z,0.80
2019-03-09T07:38:18.466Z,1.07
2019-03-09T07:40:48.393Z,1.33
2019-03-09T07:43:16.954Z,1.00
2019-03-09T07:45:48.219Z,0.80
2019-03-09T07:48:37.573Z,1.00
2019-03-09T07:51:05.976Z,1.17
2019-03-09T07:53:34.358Z,1.40
2019-03-09T07:56:02.739Z,1.00
2019-03-09T07:58:34.301Z,0.93
2019-03-09T08:01:02.893Z,1.10
2019-03-09T08:03:31.294Z,1.20
2019-03-09T08:05:59.685Z,1.17
2019-03-09T08:08:28.316Z,1.03
2019-03-09T08:10:56.701Z,0.93
2019-03-09T08:13:29.024Z,0.97
2019-03-09T08:16:00.255Z,1.00
2019-03-09T08:18:29.405Z,1.00
2019-03-09T08:20:57.789Z,0.90
2019-03-09T08:23:26.201Z,0.90
2019-03-09T08:25:54.672Z,0.77
2019-03-09T08:28:23.053Z,0.73
2019-03-09T08:30:53.117Z,1.07
2019-03-09T08:33:24.753Z,1.00
2019-03-09T08:35:53.171Z,0.80
2019-03-09T08:38:22.475Z,0.97
2019-03-09T08:40:50.871Z,1.00
2019-03-09T08:43:19.288Z,0.83
2019-03-09T08:45:47.936Z,1.10
2019-03-09T08:48:16.338Z,1.00
2019-03-09T08:50:50.457Z,0.87
2019-03-09T08:53:18.837Z,0.80
2019-03-09T08:55:47.319Z,0.90
2019-03-09T08:58:15.694Z,0.97
2019-03-09T09:00:44.090Z,0.77
2019-03-09T09:03:15.133Z,0.90
2019-03-09T09:05:45.162Z,1.27
2019-03-09T09:08:16.246Z,1.00
2019-03-09T09:10:46.273Z,0.97
2019-03-09T09:13:17.706Z,1.03
2019-03-09T09:15:46.119Z,1.30
2019-03-09T09:18:14.504Z,1.10
2019-03-09T09:20:44.154Z,1.30
2019-03-09T09:23:12.546Z,1.20
2019-03-09T09:25:40.935Z,1.20
2019-03-09T09:28:09.317Z,1.50
2019-03-09T09:30:37.705Z,1.50
2019-03-09T09:33:06.753Z,1.30
2019-03-09T09:35:36.425Z,1.47
2019-03-09T09:38:04.878Z,1.30
2019-03-09T09:40:33.936Z,1.57
2019-03-09T09:43:03.970Z,1.30
2019-03-09T09:45:32.348Z,1.77
2019-03-09T09:48:00.745Z,1.67
2019-03-09T09:50:29.132Z,1.60
2019-03-09T09:52:57.761Z,2.00
2019-03-09T09:55:31.961Z,2.10
2019-03-09T09:58:00.359Z,2.50
2019-03-09T10:00:33.132Z,2.50
2019-03-09T10:03:04.455Z,2.80
2019-03-09T10:05:32.832Z,2.70
2019-03-09T10:08:01.222Z,2.53
2019-03-09T10:10:30.039Z,2.60
2019-03-09T10:13:00.693Z,2.93
2019-03-09T10:15:32.539Z,2.90
2019-03-09T10:18:01.089Z,3.33
2019-03-09T10:20:31.976Z,2.53
2019-03-09T10:23:07.934Z,2.90
2019-03-09T10:25:39.123Z,3.10
2019-03-09T10:28:10.555Z,3.10
2019-03-09T10:30:38.942Z,2.77
2019-03-09T10:33:07.370Z,3.60
2019-03-09T10:35:41.486Z,2.30
2019-03-09T10:38:16.461Z,2.57
2019-03-09T10:40:47.837Z,2.10
2019-03-09T10:43:16.229Z,2.17
2019-03-09T10:45:52.978Z,2.23
2019-03-09T10:48:22.641Z,2.30
2019-03-09T10:50:51.044Z,2.00
2019-03-09T10:53:19.438Z,2.50
2019-03-09T10:55:52.141Z,2.20
2019-03-09T10:58:20.775Z,2.53
2019-03-09T11:00:49.156Z,2.10
2019-03-09T11:03:17.548Z,2.03
2019-03-09T11:05:45.943Z,1.80
2019-03-09T11:08:14.586Z,2.13
2019-03-09T11:10:43.222Z,2.33
2019-03-09T11:13:16.458Z,2.00
2019-03-09T11:15:45.081Z,1.87
2019-03-09T11:18:18.251Z,2.40
2019-03-09T11:20:48.529Z,2.27
2019-03-09T11:23:22.903Z,1.80
2019-03-09T11:25:51.326Z,1.97
2019-03-09T11:28:19.720Z,2.10
2019-03-09T11:30:48.402Z,1.83
2019-03-09T11:33:16.805Z,1.60
2019-03-09T11:35:46.838Z,1.70
2019-03-09T11:38:15.224Z,1.63
2019-03-09T11:40:57.073Z,1.77
2019-03-09T11:43:15.719Z,1.63
2019-03-09T11:45:47.117Z,1.60
2019-03-09T11:48:18.470Z,1.50
2019-03-09T11:50:47.036Z,1.57
2019-03-09T11:53:15.425Z,1.40
2019-03-09T11:55:46.874Z,1.40
2019-03-09T11:58:15.265Z,1.30
2019-03-09T12:00:47.426Z,1.40
2019-03-09T12:03:15.820Z,1.37
2019-03-09T12:05:47.102Z,1.40
2019-03-09T12:08:15.933Z,1.43
2019-03-09T12:10:49.967Z,1.40
2019-03-09T12:13:24.163Z,1.00
2019-03-09T12:15:52.554Z,1.20
2019-03-09T12:18:20.968Z,0.90
2019-03-09T12:20:49.413Z,1.30
2019-03-09T12:23:20.737Z,1.17
2019-03-09T12:25:58.209Z,1.60
2019-03-09T12:28:26.602Z,1.10
2019-03-09T12:30:54.989Z,1.30
2019-03-09T12:33:27.917Z,1.90
2019-03-09T12:35:58.984Z,1.47
2019-03-09T12:38:27.605Z,1.70
2019-03-09T12:40:56.241Z,1.87
2019-03-09T12:43:26.264Z,1.90
2019-03-09T12:45:57.624Z,1.63
2019-03-09T12:48:26.003Z,1.40
2019-03-09T12:50:54.385Z,1.90
2019-03-09T12:53:22.780Z,1.70
2019-03-09T12:55:51.236Z,2.03
2019-03-09T12:58:24.190Z,1.90
2019-03-09T13:00:59.037Z,1.80
2019-03-09T13:03:29.404Z,1.40
2019-03-09T13:05:57.781Z,1.20
2019-03-09T13:08:26.169Z,1.47
2019-03-09T13:10:56.014Z,1.20
2019-03-09T13:13:26.271Z,1.33
2019-03-09T13:15:57.275Z,1.40
2019-03-09T13:18:25.665Z,1.10
2019-03-09T13:21:02.025Z,1.30
2019-03-09T13:23:30.669Z,1.20
2019-03-09T13:25:59.327Z,1.20
2019-03-09T13:28:27.720Z,1.17
2019-03-09T13:30:56.094Z,1.13
2019-03-09T13:33:26.144Z,1.20
2019-03-09T13:35:57.197Z,0.87
2019-03-09T13:38:27.217Z,0.50
2019-03-09T13:41:01.602Z,0.30
2019-03-09T13:43:33.093Z,0.50
2019-03-09T13:46:01.493Z,0.60
2019-03-09T13:48:34.294Z,0.90
2019-03-09T13:51:02.753Z,0.90
2019-03-09T13:53:32.030Z,0.90
2019-03-09T13:56:00.413Z,0.80
2019-03-09T13:58:28.877Z,0.70
2019-03-09T14:00:57.300Z,0.80
2019-03-09T14:03:28.421Z,0.60
2019-03-09T14:05:59.800Z,0.50
2019-03-09T14:08:29.629Z,0.60
2019-03-09T14:10:58.024Z,0.80
2019-03-09T14:13:29.595Z,0.83
2019-03-09T14:15:57.981Z,0.60
2019-03-09T14:18:26.390Z,0.70
2019-03-09T14:20:57.525Z,0.50
2019-03-09T14:23:25.945Z,0.30
2019-03-09T14:25:55.256Z,0.50
2019-03-09T14:28:26.621Z,0.50
2019-03-09T14:30:55.012Z,0.40
2019-03-09T14:33:28.655Z,0.50
2019-03-09T14:36:03.101Z,0.90
2019-03-09T14:38:35.846Z,0.50
2019-03-09T14:41:04.474Z,0.30
2019-03-09T14:43:35.802Z,0.50
2019-03-09T14:46:04.949Z,0.57
2019-03-09T14:48:37.939Z,0.40
2019-03-09T14:51:08.261Z,0.50
2019-03-09T14:53:37.245Z,0.50
2019-03-09T14:56:05.629Z,0.80
2019-03-09T14:58:36.497Z,0.60
2019-03-09T15:01:04.895Z,0.60
2019-03-09T15:03:38.870Z,0.43
2019-03-09T15:06:08.898Z,0.60
2019-03-09T15:08:37.529Z,0.60
2019-03-09T15:11:07.558Z,0.60
2019-03-09T15:13:37.857Z,0.50
2019-03-09T15:16:06.781Z,0.50
2019-03-09T15:18:36.745Z,0.40
2019-03-09T15:21:07.848Z,0.50
2019-03-09T15:23:36.236Z,0.57
2019-03-09T15:26:05.405Z,0.50
2019-03-09T15:28:34.032Z,0.60
2019-03-09T15:31:03.953Z,0.50
2019-03-09T15:33:34.365Z,0.50
2019-03-09T15:36:02.750Z,0.50
2019-03-09T15:38:31.370Z,0.70
2019-03-09T15:41:02.290Z,0.50
2019-03-09T15:43:33.389Z,0.47
2019-03-09T15:46:04.762Z,0.70
2019-03-09T15:48:33.382Z,0.60
2019-03-09T15:51:02.018Z,0.50
2019-03-09T15:53:49.829Z,0.60
2019-03-09T15:56:18.214Z,0.80
2019-03-09T15:58:51.160Z,0.70
2019-03-09T16:01:22.508Z,0.77
2019-03-09T16:03:58.140Z,0.80
2019-03-09T16:06:26.565Z,1.10
2019-03-09T16:09:00.728Z,1.00
2019-03-09T16:11:31.913Z,0.80
2019-03-09T16:14:02.893Z,1.00
2019-03-09T16:16:31.277Z,0.90
2019-03-09T16:19:03.025Z,0.97
2019-03-09T16:21:31.503Z,0.93
2019-03-09T16:24:01.778Z,0.90
2019-03-09T16:26:36.065Z,0.90
2019-03-09T16:29:04.978Z,1.60
2019-03-09T16:31:33.363Z,1.10
2019-03-09T16:34:07.392Z,0.93
2019-03-09T16:36:41.450Z,1.00
2019-03-09T16:39:09.853Z,1.23
2019-03-09T16:41:40.894Z,1.33
2019-03-09T16:44:10.317Z,1.00
2019-03-09T16:46:38.769Z,1.00
2019-03-09T16:49:11.724Z,1.10
2019-03-09T16:51:41.778Z,1.30
2019-03-09T16:54:10.548Z,1.03
2019-03-09T16:56:44.566Z,1.73
2019-03-09T16:59:17.425Z,2.00
2019-03-09T17:01:45.831Z,1.50
2019-03-09T17:04:17.176Z,1.63
2019-03-09T17:06:46.225Z,0.93
2019-03-09T17:09:14.628Z,0.90
2019-03-09T17:11:45.689Z,0.90
2019-03-09T17:14:14.061Z,1.30
2019-03-09T17:16:42.451Z,1.27
2019-03-09T17:19:11.087Z,1.47
2019-03-09T17:21:45.205Z,1.40
2019-03-09T17:24:16.521Z,1.33
2019-03-09T17:26:45.858Z,1.47
2019-03-09T17:29:14.245Z,1.13
2019-03-09T17:31:42.889Z,1.43
2019-03-09T17:34:11.281Z,1.63
2019-03-09T17:36:42.483Z,1.87
2019-03-09T17:39:14.189Z,1.33
2019-03-09T17:41:42.590Z,1.40
2019-03-09T17:44:13.884Z,1.53
2019-03-09T17:46:44.945Z,1.90
2019-03-09T17:49:16.153Z,2.30
2019-03-09T17:51:48.865Z,1.60
2019-03-09T17:54:17.498Z,1.73
2019-03-09T17:56:45.877Z,1.50
2019-03-09T17:59:20.555Z,1.50
2019-03-09T18:01:51.538Z,1.73
2019-03-09T18:04:22.838Z,1.50
2019-03-09T18:06:54.377Z,1.73
2019-03-09T18:09:26.265Z,1.80
2019-03-09T18:11:54.665Z,2.37
2019-03-09T18:14:23.059Z,2.33
2019-03-09T18:16:53.012Z,1.47
2019-03-09T18:19:27.171Z,2.00
2019-03-09T18:21:55.562Z,2.50
2019-03-09T18:24:23.967Z,1.63
2019-03-09T18:26:52.361Z,2.30
2019-03-09T18:29:20.737Z,1.90
2019-03-09T18:31:49.133Z,1.67
2019-03-09T18:34:18.520Z,1.90
2019-03-09T18:36:51.272Z,2.23
2019-03-09T18:39:25.399Z,2.33
2019-03-09T18:42:02.583Z,1.60
2019-03-09T18:44:35.416Z,1.97
2019-03-09T18:47:03.797Z,1.97
2019-03-09T18:49:34.082Z,1.60
2019-03-09T18:52:02.562Z,1.87
2019-03-09T18:54:33.670Z,2.30
2019-03-09T18:57:02.069Z,3.00
2019-03-09T18:59:33.590Z,2.60
2019-03-09T19:02:01.982Z,2.03
2019-03-09T19:04:33.170Z,1.67
2019-03-09T19:07:01.811Z,2.93
2019-03-09T19:09:30.521Z,2.30
2019-03-09T19:12:01.848Z,1.80
2019-03-09T19:14:31.883Z,2.20
2019-03-09T19:17:04.013Z,2.20
2019-03-09T19:19:32.446Z,1.90
2019-03-09T19:22:03.709Z,2.20
2019-03-09T19:24:32.165Z,2.37
2019-03-09T19:27:00.572Z,2.17
2019-03-09T19:29:31.998Z,2.37
2019-03-09T19:32:02.030Z,1.90
2019-03-09T19:34:33.436Z,2.13
2019-03-09T19:37:04.481Z,2.20
2019-03-09T19:39:37.414Z,2.53
2019-03-09T19:42:04.869Z,2.40
2019-03-09T19:44:35.668Z,2.30
2019-03-09T19:47:10.150Z,2.23
2019-03-09T19:49:38.533Z,2.70
2019-03-09T19:52:06.933Z,2.40
2019-03-09T19:54:35.344Z,2.10
2019-03-09T19:57:03.729Z,2.87
2019-03-09T19:59:32.115Z,2.97
2019-03-09T20:02:03.776Z,2.73
2019-03-09T20:04:33.822Z,2.30
2019-03-09T20:07:03.219Z,2.73
2019-03-09T20:09:33.259Z,2.43
2019-03-09T20:12:01.647Z,3.13
2019-03-09T20:14:30.030Z,2.50
2019-03-09T20:16:58.681Z,2.60
2019-03-09T20:19:29.762Z,2.70
2019-03-09T20:21:58.152Z,2.40
2019-03-09T20:24:26.554Z,2.83
2019-03-09T20:26:57.932Z,2.30
2019-03-09T20:29:32.839Z,2.87
2019-03-09T20:32:01.221Z,2.43
2019-03-09T20:34:32.365Z,2.53
2019-03-09T20:37:02.399Z,3.10
2019-03-09T20:39:31.350Z,3.10
2019-03-09T20:41:59.756Z,3.33
2019-03-09T20:44:31.093Z,3.00
2019-03-09T20:47:05.024Z,2.57
2019-03-09T20:49:33.666Z,2.93
2019-03-09T20:52:02.148Z,3.37
2019-03-09T20:54:30.530Z,2.97
2019-03-09T20:57:04.545Z,2.60
2019-03-09T20:59:35.637Z,3.10
2019-03-09T21:02:06.592Z,2.70
2019-03-09T21:04:34.975Z,3.47
2019-03-09T21:07:03.397Z,2.87
2019-03-09T21:09:31.874Z,3.17
2019-03-09T21:12:02.754Z,3.40
2019-03-09T21:14:34.542Z,2.83
2019-03-09T21:17:04.465Z,3.40
2019-03-09T21:19:34.741Z,2.80
2019-03-09T21:22:06.267Z,2.97
2019-03-09T21:24:37.311Z,3.00
2019-03-09T21:27:06.641Z,3.20
2019-03-09T21:29:35.269Z,2.80
2019-03-09T21:32:03.951Z,3.37
2019-03-09T21:34:35.086Z,3.30
2019-03-09T21:37:03.498Z,3.43
2019-03-09T21:39:34.794Z,3.43
2019-03-09T21:42:05.900Z,3.60
2019-03-09T21:44:40.273Z,3.10
2019-03-09T21:47:08.664Z,4.00
2019-03-09T21:49:37.063Z,3.63
2019-03-09T21:52:08.390Z,2.63
2019-03-09T21:54:36.790Z,2.93
2019-03-09T21:57:05.196Z,3.37
2019-03-09T21:59:33.829Z,2.60
2019-03-09T22:02:02.261Z,3.47
2019-03-09T22:04:30.672Z,3.30
2019-03-09T22:07:06.685Z,3.83
2019-03-09T22:09:37.793Z,3.13
2019-03-09T22:12:06.186Z,3.50
2019-03-09T22:14:34.578Z,3.57
2019-03-09T22:17:02.959Z,3.20
2019-03-09T22:19:34.464Z,3.60
2019-03-09T22:22:02.851Z,3.73
2019-03-09T22:24:31.257Z,3.40
2019-03-09T22:27:05.352Z,2.73
2019-03-09T22:29:42.773Z,4.00
2019-03-09T22:32:11.171Z,3.53
2019-03-09T22:34:39.564Z,2.70
2019-03-09T22:37:20.407Z,3.27
2019-03-09T22:39:41.409Z,3.50
2019-03-09T22:42:12.573Z,3.33
2019-03-09T22:44:41.821Z,3.80
2019-03-09T22:47:12.884Z,3.10
2019-03-09T22:49:41.554Z,3.30
2019-03-09T22:52:09.947Z,3.50
2019-03-09T22:54:38.325Z,3.50
2019-03-09T22:57:06.772Z,2.80
2019-03-09T22:59:40.901Z,3.63
2019-03-09T23:02:11.407Z,3.27
2019-03-09T23:04:41.456Z,4.37
2019-03-09T23:07:09.844Z,3.93
2019-03-09T23:09:41.324Z,3.30
2019-03-09T23:12:09.718Z,3.60
2019-03-09T23:14:39.740Z,3.13
2019-03-09T23:17:08.125Z,3.43
2019-03-09T23:19:37.433Z,2.80
2019-03-09T23:22:07.283Z,3.57
2019-03-09T23:24:41.044Z,3.43
2019-03-09T23:27:12.088Z,3.03
2019-03-09T23:29:40.498Z,4.00
2019-03-09T23:32:12.084Z,3.63
2019-03-09T23:34:46.386Z,3.70
2019-03-09T23:37:14.764Z,3.80
2019-03-09T23:39:46.154Z,3.73
2019-03-09T23:42:21.768Z,3.27
2019-03-09T23:44:57.439Z,3.93
2019-03-09T23:47:28.546Z,3.00
2019-03-09T23:49:56.913Z,4.07
2019-03-09T23:52:27.022Z,3.50
2019-03-09T23:54:55.408Z,3.20
2019-03-09T23:57:23.805Z,3.50
2019-03-09T23:59:52.188Z,3.33
